sensor_id;sensor_type;location;lat;lon;timestamp;pressure;altitude;pressure_sealevel;temperature;humidity
38289;BME280;24092;53.370;-6.588;2022-09-27T00:00:14;100201.44;;;8.16;100.00
38289;BME280;24092;53.370;-6.588;2022-09-27T00:02:41;100197.76;;;6.94;100.00
38289;BME280;24092;53.370;-6.588;2022-09-27T00:05:08;100194.01;;;7.42;100.00
38289;BME280;24092;53.370;-6.588;2022-09-27T00:07:35;100188.30;;;7.22;100.00
38289;BME280;24092;53.370;-6.588;2022-09-27T00:10:03;100188.08;;;6.71;100.00
38289;BME280;24092;53.370;-6.588;2022-09-27T00:12:31;100198.76;;;6.98;100.00
38289;BME280;24092;53.370;-6.588;2022-09-27T00:14:57;100200.75;;;7.19;100.00
38289;BME280;24092;53.370;-6.588;2022-09-27T00:17:25;100196.55;;;7.03;100.00
38289;BME280;24092;53.370;-6.588;2022-09-27T00:19:52;100185.58;;;7.50;100.00
38289;BME280;24092;53.370;-6.588;2022-09-27T00:22:19;100183.48;;;7.19;100.00
38289;BME280;24092;53.370;-6.588;2022-09-27T00:24:46;100186.96;;;7.79;100.00
38289;BME280;24092;53.370;-6.588;2022-09-27T00:27:13;100180.47;;;7.37;100.00
38289;BME280;24092;53.370;-6.588;2022-09-27T00:29:40;100185.25;;;8.31;100.00
38289;BME280;24092;53.370;-6.588;2022-09-27T00:32:07;100184.24;;;7.41;100.00
38289;BME280;24092;53.370;-6.588;2022-09-27T00:34:34;100187.37;;;7.74;100.00
38289;BME280;24092;53.370;-6.588;2022-09-27T00:37:02;100175.17;;;7.80;100.00
38289;BME280;24092;53.370;-6.588;2022-09-27T00:39:29;100167.40;;;7.19;100.00
38289;BME280;24092;53.370;-6.588;2022-09-27T00:41:56;100170.79;;;7.31;100.00
38289;BME280;24092;53.370;-6.588;2022-09-27T00:45:29;100170.70;;;7.41;100.00
38289;BME280;24092;53.370;-6.588;2022-09-27T00:47:59;100167.69;;;6.46;100.00
38289;BME280;24092;53.370;-6.588;2022-09-27T00:50:28;100172.70;;;7.39;100.00
38289;BME280;24092;53.370;-6.588;2022-09-27T00:53:07;100162.18;;;7.79;100.00
38289;BME280;24092;53.370;-6.588;2022-09-27T00:55:39;100153.93;;;8.06;100.00
38289;BME280;24092;53.370;-6.588;2022-09-27T00:58:10;100140.04;;;7.89;100.00
38289;BME280;24092;53.370;-6.588;2022-09-27T01:00:43;100135.24;;;7.40;100.00
38289;BME280;24092;53.370;-6.588;2022-09-27T01:03:15;100137.11;;;7.18;100.00
38289;BME280;24092;53.370;-6.588;2022-09-27T01:05:49;100135.06;;;7.01;100.00
38289;BME280;24092;53.370;-6.588;2022-09-27T01:08:16;100129.27;;;6.96;100.00
38289;BME280;24092;53.370;-6.588;2022-09-27T01:10:48;100125.91;;;7.34;100.00
38289;BME280;24092;53.370;-6.588;2022-09-27T01:13:20;100126.09;;;7.23;100.00
38289;BME280;24092;53.370;-6.588;2022-09-27T01:15:55;100127.46;;;7.03;100.00
38289;BME280;24092;53.370;-6.588;2022-09-27T01:18:30;100132.81;;;7.55;100.00
38289;BME280;24092;53.370;-6.588;2022-09-27T01:21:14;100131.86;;;7.61;100.00
38289;BME280;24092;53.370;-6.588;2022-09-27T01:24:02;100130.93;;;7.99;100.00
38289;BME280;24092;53.370;-6.588;2022-09-27T01:26:49;100127.84;;;7.87;100.00
38289;BME280;24092;53.370;-6.588;2022-09-27T01:29:30;100125.94;;;7.50;100.00
38289;BME280;24092;53.370;-6.588;2022-09-27T01:32:06;100124.00;;;7.85;100.00
38289;BME280;24092;53.370;-6.588;2022-09-27T01:34:42;100110.06;;;8.10;100.00
38289;BME280;24092;53.370;-6.588;2022-09-27T01:37:21;100109.75;;;7.70;100.00
38289;BME280;24092;53.370;-6.588;2022-09-27T01:39:54;100105.09;;;7.75;100.00
38289;BME280;24092;53.370;-6.588;2022-09-27T01:42:27;100104.88;;;7.31;100.00
38289;BME280;24092;53.370;-6.588;2022-09-27T01:45:01;100097.63;;;7.15;100.00
38289;BME280;24092;53.370;-6.588;2022-09-27T01:47:34;100102.44;;;7.38;100.00
38289;BME280;24092;53.370;-6.588;2022-09-27T01:50:06;100102.58;;;7.70;100.00
38289;BME280;24092;53.370;-6.588;2022-09-27T01:52:39;100097.77;;;6.99;100.00
38289;BME280;24092;53.370;-6.588;2022-09-27T01:55:12;100100.50;;;7.38;100.00
38289;BME280;24092;53.370;-6.588;2022-09-27T01:57:45;100096.27;;;7.95;100.00
38289;BME280;24092;53.370;-6.588;2022-09-27T02:00:16;100088.32;;;7.58;100.00
38289;BME280;24092;53.370;-6.588;2022-09-27T02:02:46;100088.18;;;7.48;100.00
38289;BME280;24092;53.370;-6.588;2022-09-27T02:05:16;100090.41;;;7.59;100.00
38289;BME280;24092;53.370;-6.588;2022-09-27T02:07:49;100084.41;;;7.96;100.00
38289;BME280;24092;53.370;-6.588;2022-09-27T02:10:20;100081.23;;;7.59;100.00
38289;BME280;24092;53.370;-6.588;2022-09-27T02:12:53;100083.58;;;7.93;100.00
38289;BME280;24092;53.370;-6.588;2022-09-27T02:15:23;100085.50;;;7.45;100.00
38289;BME280;24092;53.370;-6.588;2022-09-27T02:17:56;100095.22;;;7.50;100.00
38289;BME280;24092;53.370;-6.588;2022-09-27T02:20:29;100098.96;;;7.59;100.00
38289;BME280;24092;53.370;-6.588;2022-09-27T02:23:07;100080.06;;;7.29;100.00
38289;BME280;24092;53.370;-6.588;2022-09-27T02:25:41;100071.73;;;7.11;100.00
38289;BME280;24092;53.370;-6.588;2022-09-27T02:28:16;100053.34;;;7.74;100.00
38289;BME280;24092;53.370;-6.588;2022-09-27T02:30:45;100054.72;;;7.14;100.00
38289;BME280;24092;53.370;-6.588;2022-09-27T02:33:12;100051.91;;;7.81;100.00
38289;BME280;24092;53.370;-6.588;2022-09-27T02:35:39;100060.53;;;7.48;100.00
38289;BME280;24092;53.370;-6.588;2022-09-27T02:38:06;100058.96;;;7.66;100.00
38289;BME280;24092;53.370;-6.588;2022-09-27T02:40:41;100060.29;;;7.64;100.00
38289;BME280;24092;53.370;-6.588;2022-09-27T02:43:08;100055.32;;;8.20;100.00
38289;BME280;24092;53.370;-6.588;2022-09-27T02:45:43;100048.51;;;7.98;100.00
38289;BME280;24092;53.370;-6.588;2022-09-27T02:48:20;100043.69;;;8.35;100.00
38289;BME280;24092;53.370;-6.588;2022-09-27T02:51:05;100044.73;;;7.80;100.00
38289;BME280;24092;53.370;-6.588;2022-09-27T02:53:42;100041.91;;;7.46;100.00
38289;BME280;24092;53.370;-6.588;2022-09-27T02:56:19;100049.26;;;7.09;100.00
38289;BME280;24092;53.370;-6.588;2022-09-27T02:59:00;100039.81;;;7.06;100.00
38289;BME280;24092;53.370;-6.588;2022-09-27T03:01:37;100043.45;;;7.28;100.00
38289;BME280;24092;53.370;-6.588;2022-09-27T03:04:14;100042.98;;;7.60;100.00
38289;BME280;24092;53.370;-6.588;2022-09-27T03:06:45;100041.45;;;7.75;100.00
38289;BME280;24092;53.370;-6.588;2022-09-27T03:09:17;100034.48;;;8.04;100.00
38289;BME280;24092;53.370;-6.588;2022-09-27T03:11:45;100025.33;;;7.82;100.00
38289;BME280;24092;53.370;-6.588;2022-09-27T03:14:12;100023.37;;;7.80;100.00
38289;BME280;24092;53.370;-6.588;2022-09-27T03:16:39;100010.53;;;7.63;100.00
38289;BME280;24092;53.370;-6.588;2022-09-27T03:19:06;100005.13;;;7.27;100.00
38289;BME280;24092;53.370;-6.588;2022-09-27T03:21:33;100006.92;;;7.86;100.00
38289;BME280;24092;53.370;-6.588;2022-09-27T03:24:00;99997.99;;;7.32;100.00
38289;BME280;24092;53.370;-6.588;2022-09-27T03:26:28;99984.10;;;7.60;100.00
38289;BME280;24092;53.370;-6.588;2022-09-27T03:28:55;99980.89;;;8.37;100.00
38289;BME280;24092;53.370;-6.588;2022-09-27T03:31:21;99982.49;;;7.69;100.00
38289;BME280;24092;53.370;-6.588;2022-09-27T03:33:49;99983.01;;;8.20;100.00
38289;BME280;24092;53.370;-6.588;2022-09-27T03:36:17;99984.98;;;8.12;100.00
38289;BME280;24092;53.370;-6.588;2022-09-27T03:38:44;99979.91;;;7.89;100.00
38289;BME280;24092;53.370;-6.588;2022-09-27T03:41:11;99971.98;;;7.68;100.00
38289;BME280;24092;53.370;-6.588;2022-09-27T03:43:38;99975.65;;;7.25;100.00
38289;BME280;24092;53.370;-6.588;2022-09-27T03:46:05;99975.61;;;7.63;100.00
38289;BME280;24092;53.370;-6.588;2022-09-27T03:48:32;99973.33;;;7.59;100.00
38289;BME280;24092;53.370;-6.588;2022-09-27T03:54:24;99968.33;;;6.99;100.00
38289;BME280;24092;53.370;-6.588;2022-09-27T03:56:51;99971.78;;;6.70;100.00
38289;BME280;24092;53.370;-6.588;2022-09-27T03:59:18;99966.59;;;7.05;100.00
38289;BME280;24092;53.370;-6.588;2022-09-27T04:01:46;99961.03;;;6.70;100.00
38289;BME280;24092;53.370;-6.588;2022-09-27T04:04:13;99968.99;;;7.48;100.00
38289;BME280;24092;53.370;-6.588;2022-09-27T04:06:40;99970.08;;;7.15;100.00
38289;BME280;24092;53.370;-6.588;2022-09-27T04:09:07;99963.72;;;7.35;100.00
38289;BME280;24092;53.370;-6.588;2022-09-27T04:11:34;99956.51;;;6.93;100.00
38289;BME280;24092;53.370;-6.588;2022-09-27T04:14:01;99965.02;;;7.43;100.00
38289;BME280;24092;53.370;-6.588;2022-09-27T04:16:28;99955.87;;;7.40;100.00
38289;BME280;24092;53.370;-6.588;2022-09-27T04:18:56;99954.82;;;6.74;100.00
38289;BME280;24092;53.370;-6.588;2022-09-27T04:21:23;99962.84;;;7.13;100.00
38289;BME280;24092;53.370;-6.588;2022-09-27T04:23:50;99967.95;;;7.92;100.00
38289;BME280;24092;53.370;-6.588;2022-09-27T04:26:17;99967.75;;;7.20;100.00
38289;BME280;24092;53.370;-6.588;2022-09-27T04:28:45;99967.35;;;7.83;100.00
38289;BME280;24092;53.370;-6.588;2022-09-27T04:31:13;99965.24;;;8.08;100.00
38289;BME280;24092;53.370;-6.588;2022-09-27T04:33:40;99955.33;;;7.73;100.00
38289;BME280;24092;53.370;-6.588;2022-09-27T04:36:08;99962.39;;;7.81;100.00
38289;BME280;24092;53.370;-6.588;2022-09-27T04:38:35;99964.69;;;7.96;100.00
38289;BME280;24092;53.370;-6.588;2022-09-27T04:41:02;99962.58;;;8.15;100.00
38289;BME280;24092;53.370;-6.588;2022-09-27T04:43:29;99968.22;;;8.28;100.00
38289;BME280;24092;53.370;-6.588;2022-09-27T04:45:57;99964.82;;;7.12;100.00
38289;BME280;24092;53.370;-6.588;2022-09-27T04:48:24;99963.73;;;7.37;100.00
38289;BME280;24092;53.370;-6.588;2022-09-27T04:50:56;99950.86;;;7.72;100.00
38289;BME280;24092;53.370;-6.588;2022-09-27T04:53:23;99958.83;;;7.89;100.00
38289;BME280;24092;53.370;-6.588;2022-09-27T04:55:52;99961.51;;;8.33;100.00
38289;BME280;24092;53.370;-6.588;2022-09-27T04:58:19;99964.42;;;8.05;100.00
38289;BME280;24092;53.370;-6.588;2022-09-27T05:00:46;99961.30;;;8.12;100.00
38289;BME280;24092;53.370;-6.588;2022-09-27T05:03:13;99955.42;;;8.31;100.00
38289;BME280;24092;53.370;-6.588;2022-09-27T05:05:40;99963.78;;;7.75;100.00
38289;BME280;24092;53.370;-6.588;2022-09-27T05:08:07;99956.31;;;7.86;100.00
38289;BME280;24092;53.370;-6.588;2022-09-27T05:10:35;99961.22;;;8.23;100.00
38289;BME280;24092;53.370;-6.588;2022-09-27T05:13:02;99960.62;;;8.30;100.00
38289;BME280;24092;53.370;-6.588;2022-09-27T05:15:30;99959.50;;;8.10;100.00
38289;BME280;24092;53.370;-6.588;2022-09-27T05:17:57;99960.71;;;7.61;100.00
38289;BME280;24092;53.370;-6.588;2022-09-27T05:20:24;99961.44;;;7.72;100.00
38289;BME280;24092;53.370;-6.588;2022-09-27T05:22:52;99960.54;;;7.56;100.00
38289;BME280;24092;53.370;-6.588;2022-09-27T05:25:19;99956.18;;;8.12;100.00
38289;BME280;24092;53.370;-6.588;2022-09-27T05:27:48;99955.99;;;8.11;100.00
38289;BME280;24092;53.370;-6.588;2022-09-27T05:30:16;99951.10;;;7.94;100.00
38289;BME280;24092;53.370;-6.588;2022-09-27T05:32:44;99944.19;;;7.65;100.00
38289;BME280;24092;53.370;-6.588;2022-09-27T05:35:12;99947.79;;;7.80;100.00
38289;BME280;24092;53.370;-6.588;2022-09-27T05:37:39;99946.06;;;7.56;100.00
38289;BME280;24092;53.370;-6.588;2022-09-27T05:40:07;99931.22;;;7.04;100.00
38289;BME280;24092;53.370;-6.588;2022-09-27T05:42:36;99934.10;;;7.96;100.00
38289;BME280;24092;53.370;-6.588;2022-09-27T05:45:04;99936.63;;;7.77;100.00
38289;BME280;24092;53.370;-6.588;2022-09-27T05:47:32;99935.74;;;8.21;100.00
38289;BME280;24092;53.370;-6.588;2022-09-27T05:49:59;99935.84;;;7.97;100.00
38289;BME280;24092;53.370;-6.588;2022-09-27T05:52:26;99939.12;;;7.74;100.00
38289;BME280;24092;53.370;-6.588;2022-09-27T05:54:53;99943.79;;;8.14;100.00
38289;BME280;24092;53.370;-6.588;2022-09-27T05:57:20;99940.42;;;7.85;100.00
38289;BME280;24092;53.370;-6.588;2022-09-27T05:59:48;99935.97;;;7.63;100.00
38289;BME280;24092;53.370;-6.588;2022-09-27T06:02:15;99933.54;;;8.08;100.00
38289;BME280;24092;53.370;-6.588;2022-09-27T06:04:43;99937.04;;;7.89;100.00
38289;BME280;24092;53.370;-6.588;2022-09-27T06:07:09;99935.02;;;7.98;100.00
38289;BME280;24092;53.370;-6.588;2022-09-27T06:09:37;99937.69;;;7.82;100.00
38289;BME280;24092;53.370;-6.588;2022-09-27T06:12:04;99927.97;;;7.49;100.00
38289;BME280;24092;53.370;-6.588;2022-09-27T06:14:31;99934.83;;;7.64;100.00
38289;BME280;24092;53.370;-6.588;2022-09-27T06:16:59;99933.15;;;8.10;100.00
38289;BME280;24092;53.370;-6.588;2022-09-27T06:19:26;99934.60;;;8.04;100.00
38289;BME280;24092;53.370;-6.588;2022-09-27T06:21:53;99932.17;;;8.17;100.00
38289;BME280;24092;53.370;-6.588;2022-09-27T06:24:20;99930.84;;;7.91;100.00
38289;BME280;24092;53.370;-6.588;2022-09-27T06:26:47;99927.08;;;7.89;100.00
38289;BME280;24092;53.370;-6.588;2022-09-27T06:29:15;99925.76;;;7.60;100.00
38289;BME280;24092;53.370;-6.588;2022-09-27T06:31:42;99929.06;;;8.37;100.00
38289;BME280;24092;53.370;-6.588;2022-09-27T06:34:09;99932.72;;;7.75;100.00
38289;BME280;24092;53.370;-6.588;2022-09-27T06:36:36;99927.04;;;8.03;100.00
38289;BME280;24092;53.370;-6.588;2022-09-27T06:39:03;99927.02;;;7.98;100.00
38289;BME280;24092;53.370;-6.588;2022-09-27T06:41:30;99924.45;;;7.74;100.00
38289;BME280;24092;53.370;-6.588;2022-09-27T06:43:57;99925.14;;;8.02;100.00
38289;BME280;24092;53.370;-6.588;2022-09-27T06:46:24;99928.17;;;7.33;100.00
38289;BME280;24092;53.370;-6.588;2022-09-27T06:48:52;99926.50;;;7.77;100.00
38289;BME280;24092;53.370;-6.588;2022-09-27T06:51:20;99919.93;;;7.20;100.00
38289;BME280;24092;53.370;-6.588;2022-09-27T06:53:47;99913.93;;;7.93;100.00
38289;BME280;24092;53.370;-6.588;2022-09-27T06:56:14;99920.93;;;8.01;100.00
38289;BME280;24092;53.370;-6.588;2022-09-27T06:58:42;99921.08;;;8.09;100.00
38289;BME280;24092;53.370;-6.588;2022-09-27T07:01:09;99926.68;;;8.17;100.00
38289;BME280;24092;53.370;-6.588;2022-09-27T07:03:37;99921.41;;;7.83;100.00
38289;BME280;24092;53.370;-6.588;2022-09-27T07:06:05;99909.08;;;8.42;100.00
38289;BME280;24092;53.370;-6.588;2022-09-27T07:08:32;99906.39;;;8.64;100.00
38289;BME280;24092;53.370;-6.588;2022-09-27T07:11:02;99912.15;;;8.23;100.00
38289;BME280;24092;53.370;-6.588;2022-09-27T07:13:30;99905.37;;;8.42;100.00
38289;BME280;24092;53.370;-6.588;2022-09-27T07:15:57;99906.77;;;8.53;100.00
38289;BME280;24092;53.370;-6.588;2022-09-27T07:18:24;99906.27;;;8.72;100.00
38289;BME280;24092;53.370;-6.588;2022-09-27T07:20:52;99908.31;;;8.02;100.00
38289;BME280;24092;53.370;-6.588;2022-09-27T07:23:20;99914.44;;;7.95;100.00
38289;BME280;24092;53.370;-6.588;2022-09-27T07:25:47;99912.79;;;8.53;100.00
38289;BME280;24092;53.370;-6.588;2022-09-27T07:28:15;99912.11;;;8.31;100.00
38289;BME280;24092;53.370;-6.588;2022-09-27T07:30:44;99914.88;;;8.67;100.00
38289;BME280;24092;53.370;-6.588;2022-09-27T07:33:12;99904.20;;;8.46;100.00
38289;BME280;24092;53.370;-6.588;2022-09-27T07:35:40;99900.66;;;8.70;100.00
38289;BME280;24092;53.370;-6.588;2022-09-27T07:38:09;99903.05;;;7.97;100.00
38289;BME280;24092;53.370;-6.588;2022-09-27T07:40:37;99896.25;;;8.48;100.00
38289;BME280;24092;53.370;-6.588;2022-09-27T07:43:05;99888.36;;;9.17;100.00
38289;BME280;24092;53.370;-6.588;2022-09-27T07:45:32;99888.00;;;9.24;100.00
38289;BME280;24092;53.370;-6.588;2022-09-27T07:47:59;99886.80;;;8.64;100.00
38289;BME280;24092;53.370;-6.588;2022-09-27T07:50:27;99890.71;;;8.18;100.00
38289;BME280;24092;53.370;-6.588;2022-09-27T07:52:54;99879.86;;;8.99;100.00
38289;BME280;24092;53.370;-6.588;2022-09-27T07:55:22;99886.45;;;8.81;100.00
38289;BME280;24092;53.370;-6.588;2022-09-27T07:57:49;99889.68;;;8.18;100.00
38289;BME280;24092;53.370;-6.588;2022-09-27T08:00:18;99892.12;;;8.40;100.00
38289;BME280;24092;53.370;-6.588;2022-09-27T08:02:46;99902.08;;;9.32;100.00
38289;BME280;24092;53.370;-6.588;2022-09-27T08:05:13;99900.01;;;9.13;100.00
38289;BME280;24092;53.370;-6.588;2022-09-27T08:07:40;99899.38;;;8.80;100.00
38289;BME280;24092;53.370;-6.588;2022-09-27T08:10:08;99901.82;;;8.37;100.00
38289;BME280;24092;53.370;-6.588;2022-09-27T08:12:35;99900.06;;;9.00;100.00
38289;BME280;24092;53.370;-6.588;2022-09-27T08:15:03;99905.23;;;8.74;100.00
38289;BME280;24092;53.370;-6.588;2022-09-27T08:17:31;99903.27;;;8.78;100.00
38289;BME280;24092;53.370;-6.588;2022-09-27T08:19:58;99903.70;;;8.22;100.00
38289;BME280;24092;53.370;-6.588;2022-09-27T08:22:26;99897.47;;;6.72;100.00
38289;BME280;24092;53.370;-6.588;2022-09-27T08:24:53;99889.13;;;8.43;100.00
38289;BME280;24092;53.370;-6.588;2022-09-27T08:27:21;99887.56;;;8.90;100.00
38289;BME280;24092;53.370;-6.588;2022-09-27T08:29:48;99880.78;;;8.25;100.00
38289;BME280;24092;53.370;-6.588;2022-09-27T08:32:15;99883.07;;;7.88;100.00
38289;BME280;24092;53.370;-6.588;2022-09-27T08:34:43;99885.24;;;8.89;100.00
38289;BME280;24092;53.370;-6.588;2022-09-27T08:37:10;99880.72;;;9.73;100.00
38289;BME280;24092;53.370;-6.588;2022-09-27T08:39:37;99878.74;;;9.23;100.00
38289;BME280;24092;53.370;-6.588;2022-09-27T08:42:12;99876.45;;;9.89;100.00
38289;BME280;24092;53.370;-6.588;2022-09-27T08:44:48;99872.65;;;9.84;100.00
38289;BME280;24092;53.370;-6.588;2022-09-27T08:47:24;99873.81;;;8.46;100.00
38289;BME280;24092;53.370;-6.588;2022-09-27T08:49:57;99875.16;;;8.19;100.00
38289;BME280;24092;53.370;-6.588;2022-09-27T08:52:30;99874.63;;;8.81;100.00
38289;BME280;24092;53.370;-6.588;2022-09-27T08:55:02;99874.76;;;9.85;100.00
38289;BME280;24092;53.370;-6.588;2022-09-27T08:57:30;99872.70;;;9.37;100.00
38289;BME280;24092;53.370;-6.588;2022-09-27T09:00:03;99869.15;;;9.95;100.00
38289;BME280;24092;53.370;-6.588;2022-09-27T09:02:30;99864.25;;;9.89;100.00
38289;BME280;24092;53.370;-6.588;2022-09-27T09:05:04;99866.46;;;9.19;100.00
38289;BME280;24092;53.370;-6.588;2022-09-27T09:07:46;99873.69;;;10.05;100.00
38289;BME280;24092;53.370;-6.588;2022-09-27T09:10:26;99874.69;;;9.94;100.00
38289;BME280;24092;53.370;-6.588;2022-09-27T09:13:00;99881.79;;;9.53;100.00
38289;BME280;24092;53.370;-6.588;2022-09-27T09:15:37;99887.87;;;8.81;100.00
38289;BME280;24092;53.370;-6.588;2022-09-27T09:18:23;99884.24;;;9.50;100.00
38289;BME280;24092;53.370;-6.588;2022-09-27T09:20:59;99878.95;;;8.65;100.00
38289;BME280;24092;53.370;-6.588;2022-09-27T09:23:46;99887.43;;;9.52;100.00
38289;BME280;24092;53.370;-6.588;2022-09-27T09:26:20;99883.71;;;9.33;100.00
38289;BME280;24092;53.370;-6.588;2022-09-27T09:29:04;99884.24;;;9.08;100.00
38289;BME280;24092;53.370;-6.588;2022-09-27T09:31:40;99885.21;;;9.22;100.00
38289;BME280;24092;53.370;-6.588;2022-09-27T09:34:13;99881.46;;;8.90;100.00
38289;BME280;24092;53.370;-6.588;2022-09-27T09:36:45;99882.46;;;9.51;100.00
38289;BME280;24092;53.370;-6.588;2022-09-27T09:39:16;99881.94;;;9.48;100.00
38289;BME280;24092;53.370;-6.588;2022-09-27T09:41:55;99879.62;;;10.18;100.00
38289;BME280;24092;53.370;-6.588;2022-09-27T09:44:29;99877.93;;;9.59;100.00
38289;BME280;24092;53.370;-6.588;2022-09-27T09:46:59;99879.31;;;9.59;100.00
38289;BME280;24092;53.370;-6.588;2022-09-27T09:49:30;99873.79;;;9.18;100.00
38289;BME280;24092;53.370;-6.588;2022-09-27T09:52:03;99866.17;;;9.03;100.00
38289;BME280;24092;53.370;-6.588;2022-09-27T09:54:35;99862.23;;;8.57;100.00
38289;BME280;24092;53.370;-6.588;2022-09-27T09:57:07;99864.18;;;9.49;100.00
38289;BME280;24092;53.370;-6.588;2022-09-27T09:59:42;99860.08;;;9.90;100.00
38289;BME280;24092;53.370;-6.588;2022-09-27T10:02:22;99857.49;;;9.56;100.00
38289;BME280;24092;53.370;-6.588;2022-09-27T10:04:52;99856.16;;;9.03;100.00
38289;BME280;24092;53.370;-6.588;2022-09-27T10:07:21;99860.36;;;9.10;100.00
38289;BME280;24092;53.370;-6.588;2022-09-27T10:09:49;99852.89;;;9.01;100.00
38289;BME280;24092;53.370;-6.588;2022-09-27T10:12:17;99858.54;;;8.56;100.00
38289;BME280;24092;53.370;-6.588;2022-09-27T10:14:46;99852.66;;;8.18;100.00
38289;BME280;24092;53.370;-6.588;2022-09-27T10:17:16;99858.00;;;7.80;100.00
38289;BME280;24092;53.370;-6.588;2022-09-27T10:19:45;99855.96;;;8.54;100.00
38289;BME280;24092;53.370;-6.588;2022-09-27T10:22:21;99854.15;;;8.00;100.00
38289;BME280;24092;53.370;-6.588;2022-09-27T10:24:56;99851.07;;;8.72;100.00
38289;BME280;24092;53.370;-6.588;2022-09-27T10:27:24;99848.19;;;8.90;100.00
38289;BME280;24092;53.370;-6.588;2022-09-27T10:29:56;99844.57;;;8.94;100.00
38289;BME280;24092;53.370;-6.588;2022-09-27T10:32:26;99842.93;;;9.82;100.00
38289;BME280;24092;53.370;-6.588;2022-09-27T10:34:55;99841.39;;;8.87;100.00
38289;BME280;24092;53.370;-6.588;2022-09-27T10:37:23;99852.16;;;8.46;100.00
38289;BME280;24092;53.370;-6.588;2022-09-27T10:39:50;99849.81;;;9.24;100.00
38289;BME280;24092;53.370;-6.588;2022-09-27T10:42:21;99842.41;;;8.91;100.00
38289;BME280;24092;53.370;-6.588;2022-09-27T10:44:49;99842.11;;;9.13;100.00
38289;BME280;24092;53.370;-6.588;2022-09-27T10:47:19;99834.55;;;9.19;100.00
38289;BME280;24092;53.370;-6.588;2022-09-27T10:49:48;99829.50;;;9.35;100.00
38289;BME280;24092;53.370;-6.588;2022-09-27T10:52:17;99832.13;;;9.78;100.00
38289;BME280;24092;53.370;-6.588;2022-09-27T10:54:52;99825.74;;;9.82;100.00
38289;BME280;24092;53.370;-6.588;2022-09-27T10:57:22;99820.37;;;9.52;100.00
38289;BME280;24092;53.370;-6.588;2022-09-27T10:59:52;99817.93;;;8.99;100.00
38289;BME280;24092;53.370;-6.588;2022-09-27T11:02:23;99820.55;;;9.12;100.00
38289;BME280;24092;53.370;-6.588;2022-09-27T11:05:10;99815.72;;;9.88;100.00
38289;BME280;24092;53.370;-6.588;2022-09-27T11:07:47;99817.63;;;9.06;100.00
38289;BME280;24092;53.370;-6.588;2022-09-27T11:10:23;99810.98;;;8.61;100.00
38289;BME280;24092;53.370;-6.588;2022-09-27T11:13:23;99803.96;;;8.24;100.00
38289;BME280;24092;53.370;-6.588;2022-09-27T11:16:02;99802.97;;;8.76;100.00
38289;BME280;24092;53.370;-6.588;2022-09-27T11:18:42;99798.21;;;8.15;100.00
38289;BME280;24092;53.370;-6.588;2022-09-27T11:21:20;99789.12;;;8.75;100.00
38289;BME280;24092;53.370;-6.588;2022-09-27T11:23:57;99790.34;;;8.94;100.00
38289;BME280;24092;53.370;-6.588;2022-09-27T11:26:35;99786.99;;;9.25;100.00
38289;BME280;24092;53.370;-6.588;2022-09-27T11:29:16;99791.32;;;8.83;100.00
38289;BME280;24092;53.370;-6.588;2022-09-27T11:31:57;99786.56;;;7.72;100.00
38289;BME280;24092;53.370;-6.588;2022-09-27T11:34:40;99786.93;;;8.76;100.00
38289;BME280;24092;53.370;-6.588;2022-09-27T11:37:17;99789.58;;;8.63;100.00
38289;BME280;24092;53.370;-6.588;2022-09-27T11:40:02;99783.97;;;8.71;100.00
38289;BME280;24092;53.370;-6.588;2022-09-27T11:42:43;99788.57;;;8.79;100.00
38289;BME280;24092;53.370;-6.588;2022-09-27T11:45:23;99790.56;;;8.31;100.00
38289;BME280;24092;53.370;-6.588;2022-09-27T11:48:03;99787.70;;;9.67;100.00
38289;BME280;24092;53.370;-6.588;2022-09-27T11:50:46;99791.62;;;8.90;100.00
38289;BME280;24092;53.370;-6.588;2022-09-27T11:53:27;99788.54;;;7.94;100.00
38289;BME280;24092;53.370;-6.588;2022-09-27T11:56:06;99788.24;;;8.15;100.00
38289;BME280;24092;53.370;-6.588;2022-09-27T11:58:41;99784.18;;;8.07;100.00
38289;BME280;24092;53.370;-6.588;2022-09-27T12:01:20;99781.43;;;9.37;100.00
38289;BME280;24092;53.370;-6.588;2022-09-27T12:04:15;99775.19;;;8.54;100.00
38289;BME280;24092;53.370;-6.588;2022-09-27T12:06:53;99770.05;;;9.45;100.00
38289;BME280;24092;53.370;-6.588;2022-09-27T12:09:29;99768.74;;;10.09;100.00
38289;BME280;24092;53.370;-6.588;2022-09-27T12:12:01;99771.69;;;9.97;100.00
38289;BME280;24092;53.370;-6.588;2022-09-27T12:14:35;99774.53;;;9.64;100.00
38289;BME280;24092;53.370;-6.588;2022-09-27T12:17:06;99770.52;;;9.28;100.00
38289;BME280;24092;53.370;-6.588;2022-09-27T12:19:39;99765.53;;;9.57;100.00
38289;BME280;24092;53.370;-6.588;2022-09-27T12:22:13;99768.84;;;9.39;100.00
38289;BME280;24092;53.370;-6.588;2022-09-27T12:24:42;99760.85;;;10.12;100.00
38289;BME280;24092;53.370;-6.588;2022-09-27T12:27:15;99763.83;;;9.01;100.00
38289;BME280;24092;53.370;-6.588;2022-09-27T12:29:45;99758.22;;;9.89;100.00
38289;BME280;24092;53.370;-6.588;2022-09-27T12:32:17;99756.13;;;10.08;100.00
38289;BME280;24092;53.370;-6.588;2022-09-27T12:34:53;99754.45;;;9.43;100.00
38289;BME280;24092;53.370;-6.588;2022-09-27T12:37:24;99758.13;;;8.24;100.00
38289;BME280;24092;53.370;-6.588;2022-09-27T12:39:57;99755.93;;;9.08;100.00
38289;BME280;24092;53.370;-6.588;2022-09-27T12:42:33;99747.83;;;8.87;100.00
38289;BME280;24092;53.370;-6.588;2022-09-27T12:45:03;99750.41;;;8.30;100.00
38289;BME280;24092;53.370;-6.588;2022-09-27T12:47:58;99749.32;;;9.63;100.00
38289;BME280;24092;53.370;-6.588;2022-09-27T12:50:31;99740.83;;;7.64;100.00
38289;BME280;24092;53.370;-6.588;2022-09-27T12:53:07;99747.51;;;8.35;100.00
38289;BME280;24092;53.370;-6.588;2022-09-27T12:55:50;99743.14;;;9.16;100.00
38289;BME280;24092;53.370;-6.588;2022-09-27T12:59:05;99749.32;;;7.91;100.00
38289;BME280;24092;53.370;-6.588;2022-09-27T13:01:49;99750.75;;;9.24;100.00
38289;BME280;24092;53.370;-6.588;2022-09-27T13:04:29;99755.52;;;9.58;100.00
38289;BME280;24092;53.370;-6.588;2022-09-27T13:07:14;99757.51;;;8.31;100.00
38289;BME280;24092;53.370;-6.588;2022-09-27T13:10:05;99751.25;;;7.76;100.00
38289;BME280;24092;53.370;-6.588;2022-09-27T13:12:37;99749.75;;;8.43;100.00